createdAt,value
2023-05-02T00:10:31.764Z,23.50
2023-05-02T00:25:33.235Z,23.50
2023-05-02T00:40:34.706Z,23.40
2023-05-02T00:55:36.228Z,23.40
2023-05-02T01:10:37.717Z,23.30
2023-05-02T01:25:39.188Z,23.30
2023-05-02T01:40:40.664Z,23.30
2023-05-02T01:55:42.143Z,23.30
2023-05-02T02:10:43.626Z,23.20
2023-05-02T02:25:45.105Z,23.20
2023-05-02T02:40:46.608Z,23.20
2023-05-02T02:55:48.067Z,23.10
2023-05-02T03:10:49.535Z,23.20
2023-05-02T03:25:51.008Z,23.10
2023-05-02T03:40:52.481Z,23.10
2023-05-02T03:55:53.972Z,23.10
2023-05-02T04:10:55.450Z,23.00
2023-05-02T04:25:56.928Z,23.00
2023-05-02T04:40:58.454Z,23.00
2023-05-02T04:55:59.981Z,23.00
2023-05-02T05:11:01.450Z,23.00
2023-05-02T05:26:02.947Z,22.90
2023-05-02T05:41:04.407Z,22.90
2023-05-02T05:56:05.868Z,23.00
2023-05-02T06:11:08.566Z,23.00
2023-05-02T06:26:10.035Z,23.00
2023-05-02T06:41:11.499Z,23.10
2023-05-02T06:56:13.001Z,23.10
2023-05-02T07:11:14.495Z,23.20
2023-05-02T07:26:16.203Z,23.20
2023-05-02T07:41:17.727Z,23.20
2023-05-02T07:56:19.190Z,23.20
2023-05-02T08:11:21.874Z,23.40
2023-05-02T08:26:24.011Z,23.60
2023-05-02T08:41:25.548Z,23.70
2023-05-02T08:56:27.064Z,23.90
2023-05-02T09:11:28.537Z,24.10
2023-05-02T09:26:31.580Z,24.10
2023-05-02T09:41:33.523Z,24.10
2023-05-02T09:56:35.016Z,24.30
2023-05-02T10:11:36.488Z,24.50
2023-05-02T10:26:37.956Z,24.60
2023-05-02T10:41:39.419Z,24.70
2023-05-02T10:56:40.904Z,24.40
2023-05-02T11:11:42.443Z,24.30
2023-05-02T11:26:44.067Z,24.20
2023-05-02T11:41:45.530Z,24.20
2023-05-02T11:56:47.071Z,24.10
2023-05-02T12:11:48.591Z,24.10
2023-05-02T12:26:51.197Z,24.00
2023-05-02T12:41:53.337Z,24.00
2023-05-02T12:56:54.802Z,24.00
2023-05-02T13:11:56.269Z,24.00
2023-05-02T13:26:57.732Z,24.00
2023-05-02T13:41:59.215Z,24.00
2023-05-02T13:57:00.686Z,24.00
2023-05-02T14:12:02.189Z,23.90
2023-05-02T14:27:03.650Z,23.90
2023-05-02T14:42:05.110Z,23.90
2023-05-02T14:57:06.625Z,23.90
2023-05-02T15:12:08.117Z,23.90
2023-05-02T15:27:09.598Z,24.00
2023-05-02T15:42:11.087Z,24.00
2023-05-02T15:57:12.551Z,24.00
2023-05-02T16:12:14.027Z,24.00
2023-05-02T16:27:15.500Z,24.10
2023-05-02T16:42:16.965Z,24.10
2023-05-02T16:57:18.512Z,24.20
2023-05-02T17:12:19.998Z,24.20
2023-05-02T17:27:21.471Z,24.30
2023-05-02T17:42:22.941Z,24.20
2023-05-02T17:57:24.417Z,24.20
2023-05-02T18:12:25.993Z,24.20
2023-05-02T18:27:27.473Z,24.20
2023-05-02T18:42:28.971Z,24.10
2023-05-02T18:57:30.491Z,24.10
2023-05-02T19:12:31.988Z,24.10
2023-05-02T19:27:33.443Z,24.00
2023-05-02T19:42:34.910Z,24.00
2023-05-02T19:57:36.378Z,23.80
2023-05-02T20:12:37.838Z,23.80
2023-05-02T20:27:39.339Z,23.70
2023-05-02T20:42:40.819Z,23.70
2023-05-02T20:57:42.295Z,23.60
2023-05-02T21:12:43.776Z,23.60
2023-05-02T21:27:45.271Z,23.50
2023-05-02T21:42:46.742Z,23.40
2023-05-02T21:57:48.229Z,23.40
2023-05-02T22:12:49.710Z,23.30
2023-05-02T22:27:51.190Z,23.30
2023-05-02T22:42:52.696Z,23.20
2023-05-02T22:57:54.301Z,23.10
2023-05-02T23:12:55.752Z,23.10
2023-05-02T23:27:57.210Z,23.10
2023-05-02T23:42:58.693Z,23.00
2023-05-02T23:58:00.162Z,23.00
